sensor_id;sensor_type;location;lat;lon;timestamp;P1;durP1;ratioP1;P2;durP2;ratioP2
73454;SDS011;61690;51.824;6.306;2022-11-14T00:01:59;5.73;;;2.50;;
73454;SDS011;61690;51.824;6.306;2022-11-14T00:04:24;5.70;;;2.40;;
73454;SDS011;61690;51.824;6.306;2022-11-14T00:06:50;5.87;;;2.23;;
73454;SDS011;61690;51.824;6.306;2022-11-14T00:09:15;5.63;;;2.50;;
73454;SDS011;61690;51.824;6.306;2022-11-14T00:11:40;6.33;;;2.70;;
73454;SDS011;61690;51.824;6.306;2022-11-14T00:14:06;5.40;;;2.43;;
73454;SDS011;61690;51.824;6.306;2022-11-14T00:16:31;5.85;;;2.40;;
73454;SDS011;61690;51.824;6.306;2022-11-14T00:18:56;5.30;;;2.50;;
73454;SDS011;61690;51.824;6.306;2022-11-14T00:21:22;4.90;;;2.30;;
73454;SDS011;61690;51.824;6.306;2022-11-14T00:23:47;5.50;;;2.10;;
73454;SDS011;61690;51.824;6.306;2022-11-14T00:26:12;5.03;;;2.37;;
73454;SDS011;61690;51.824;6.306;2022-11-14T00:28:38;5.83;;;2.30;;
73454;SDS011;61690;51.824;6.306;2022-11-14T00:31:03;5.47;;;2.20;;
73454;SDS011;61690;51.824;6.306;2022-11-14T00:33:28;5.87;;;2.40;;
73454;SDS011;61690;51.824;6.306;2022-11-14T00:35:54;5.90;;;2.10;;
73454;SDS011;61690;51.824;6.306;2022-11-14T00:38:20;5.10;;;2.40;;
73454;SDS011;61690;51.824;6.306;2022-11-14T00:40:46;6.03;;;2.45;;
73454;SDS011;61690;51.824;6.306;2022-11-14T00:43:12;5.07;;;2.37;;
73454;SDS011;61690;51.824;6.306;2022-11-14T00:45:37;5.23;;;2.20;;
73454;SDS011;61690;51.824;6.306;2022-11-14T00:48:02;6.85;;;2.33;;
73454;SDS011;61690;51.824;6.306;2022-11-14T00:50:28;5.53;;;2.57;;
73454;SDS011;61690;51.824;6.306;2022-11-14T00:52:53;6.03;;;2.50;;
73454;SDS011;61690;51.824;6.306;2022-11-14T00:55:18;5.10;;;2.60;;
73454;SDS011;61690;51.824;6.306;2022-11-14T00:57:44;5.50;;;2.43;;
73454;SDS011;61690;51.824;6.306;2022-11-14T01:00:10;5.33;;;2.10;;
73454;SDS011;61690;51.824;6.306;2022-11-14T01:02:38;5.47;;;2.40;;
73454;SDS011;61690;51.824;6.306;2022-11-14T01:05:04;4.83;;;2.33;;
73454;SDS011;61690;51.824;6.306;2022-11-14T01:07:29;4.97;;;2.33;;
73454;SDS011;61690;51.824;6.306;2022-11-14T01:09:55;5.77;;;2.57;;
73454;SDS011;61690;51.824;6.306;2022-11-14T01:12:20;5.50;;;2.47;;
73454;SDS011;61690;51.824;6.306;2022-11-14T01:14:45;5.47;;;2.47;;
73454;SDS011;61690;51.824;6.306;2022-11-14T01:17:11;5.00;;;2.40;;
73454;SDS011;61690;51.824;6.306;2022-11-14T01:19:36;5.53;;;2.40;;
73454;SDS011;61690;51.824;6.306;2022-11-14T01:22:02;4.93;;;2.13;;
73454;SDS011;61690;51.824;6.306;2022-11-14T01:24:28;4.60;;;1.98;;
73454;SDS011;61690;51.824;6.306;2022-11-14T01:26:54;5.30;;;2.40;;
73454;SDS011;61690;51.824;6.306;2022-11-14T01:29:20;5.45;;;2.35;;
73454;SDS011;61690;51.824;6.306;2022-11-14T01:31:45;6.20;;;2.57;;
73454;SDS011;61690;51.824;6.306;2022-11-14T06:01:06;5.03;;;2.45;;
73454;SDS011;61690;51.824;6.306;2022-11-14T06:03:33;6.68;;;2.30;;
73454;SDS011;61690;51.824;6.306;2022-11-14T06:06:00;8.40;;;2.53;;
73454;SDS011;61690;51.824;6.306;2022-11-14T06:08:27;6.18;;;2.42;;
73454;SDS011;61690;51.824;6.306;2022-11-14T06:10:53;4.83;;;2.17;;
73454;SDS011;61690;51.824;6.306;2022-11-14T06:13:19;5.60;;;2.40;;
73454;SDS011;61690;51.824;6.306;2022-11-14T06:15:44;5.73;;;2.30;;
73454;SDS011;61690;51.824;6.306;2022-11-14T06:18:09;5.30;;;2.20;;
73454;SDS011;61690;51.824;6.306;2022-11-14T06:20:35;5.33;;;2.27;;
73454;SDS011;61690;51.824;6.306;2022-11-14T06:23:00;8.00;;;2.50;;
73454;SDS011;61690;51.824;6.306;2022-11-14T06:25:25;12.73;;;2.40;;
73454;SDS011;61690;51.824;6.306;2022-11-14T06:31:12;5.80;;;2.40;;
73454;SDS011;61690;51.824;6.306;2022-11-14T06:33:38;5.63;;;2.50;;
73454;SDS011;61690;51.824;6.306;2022-11-14T06:36:04;5.43;;;2.40;;
73454;SDS011;61690;51.824;6.306;2022-11-14T06:38:31;6.83;;;2.17;;
73454;SDS011;61690;51.824;6.306;2022-11-14T06:41:02;5.43;;;2.10;;
73454;SDS011;61690;51.824;6.306;2022-11-14T06:43:35;4.53;;;1.92;;
73454;SDS011;61690;51.824;6.306;2022-11-14T06:49:23;5.32;;;2.20;;
73454;SDS011;61690;51.824;6.306;2022-11-14T06:51:49;5.27;;;2.20;;
73454;SDS011;61690;51.824;6.306;2022-11-14T06:54:14;7.90;;;3.47;;
73454;SDS011;61690;51.824;6.306;2022-11-14T06:56:40;7.60;;;2.83;;
73454;SDS011;61690;51.824;6.306;2022-11-14T06:59:05;6.77;;;3.07;;
73454;SDS011;61690;51.824;6.306;2022-11-14T07:01:31;7.70;;;3.10;;
73454;SDS011;61690;51.824;6.306;2022-11-14T07:03:56;5.67;;;2.80;;
73454;SDS011;61690;51.824;6.306;2022-11-14T07:06:26;6.07;;;2.70;;
73454;SDS011;61690;51.824;6.306;2022-11-14T07:08:53;9.73;;;3.03;;
73454;SDS011;61690;51.824;6.306;2022-11-14T07:11:20;6.93;;;2.70;;
73454;SDS011;61690;51.824;6.306;2022-11-14T07:14:00;6.23;;;2.60;;
73454;SDS011;61690;51.824;6.306;2022-11-14T07:16:30;6.10;;;2.72;;
73454;SDS011;61690;51.824;6.306;2022-11-14T07:19:01;5.53;;;2.75;;
73454;SDS011;61690;51.824;6.306;2022-11-14T07:21:31;14.00;;;2.97;;
73454;SDS011;61690;51.824;6.306;2022-11-14T07:23:58;5.93;;;2.45;;
73454;SDS011;61690;51.824;6.306;2022-11-14T07:26:23;6.67;;;2.63;;
73454;SDS011;61690;51.824;6.306;2022-11-14T07:28:49;6.07;;;2.50;;
73454;SDS011;61690;51.824;6.306;2022-11-14T07:31:15;5.63;;;2.70;;
73454;SDS011;61690;51.824;6.306;2022-11-14T07:33:42;6.80;;;3.00;;
73454;SDS011;61690;51.824;6.306;2022-11-14T07:39:30;8.20;;;3.47;;
73454;SDS011;61690;51.824;6.306;2022-11-14T07:41:55;5.90;;;3.00;;
73454;SDS011;61690;51.824;6.306;2022-11-14T07:44:20;7.77;;;3.07;;
73454;SDS011;61690;51.824;6.306;2022-11-14T07:46:46;7.53;;;3.30;;
73454;SDS011;61690;51.824;6.306;2022-11-14T07:49:11;7.40;;;3.37;;
73454;SDS011;61690;51.824;6.306;2022-11-14T07:51:36;7.50;;;3.00;;
73454;SDS011;61690;51.824;6.306;2022-11-14T07:54:02;8.10;;;2.97;;
73454;SDS011;61690;51.824;6.306;2022-11-14T07:56:27;6.67;;;2.77;;
73454;SDS011;61690;51.824;6.306;2022-11-14T07:58:53;7.17;;;3.37;;
73454;SDS011;61690;51.824;6.306;2022-11-14T08:01:18;7.13;;;3.10;;
73454;SDS011;61690;51.824;6.306;2022-11-14T08:03:44;6.25;;;3.30;;
73454;SDS011;61690;51.824;6.306;2022-11-14T08:06:10;6.80;;;3.10;;
73454;SDS011;61690;51.824;6.306;2022-11-14T08:08:37;7.18;;;3.05;;
73454;SDS011;61690;51.824;6.306;2022-11-14T08:28:08;6.90;;;3.25;;
73454;SDS011;61690;51.824;6.306;2022-11-14T08:30:34;5.63;;;2.80;;
73454;SDS011;61690;51.824;6.306;2022-11-14T08:33:03;7.17;;;2.93;;
73454;SDS011;61690;51.824;6.306;2022-11-14T08:35:29;7.95;;;3.20;;
73454;SDS011;61690;51.824;6.306;2022-11-14T08:37:55;7.50;;;3.10;;
73454;SDS011;61690;51.824;6.306;2022-11-14T08:40:20;8.17;;;3.23;;
73454;SDS011;61690;51.824;6.306;2022-11-14T08:46:08;7.50;;;2.92;;
73454;SDS011;61690;51.824;6.306;2022-11-14T08:48:33;6.47;;;3.35;;
73454;SDS011;61690;51.824;6.306;2022-11-14T08:51:05;7.37;;;3.40;;
73454;SDS011;61690;51.824;6.306;2022-11-14T08:53:31;6.97;;;3.10;;
73454;SDS011;61690;51.824;6.306;2022-11-14T08:55:57;6.68;;;3.13;;
73454;SDS011;61690;51.824;6.306;2022-11-14T08:58:23;8.17;;;3.00;;
73454;SDS011;61690;51.824;6.306;2022-11-14T09:00:48;7.95;;;3.13;;
73454;SDS011;61690;51.824;6.306;2022-11-14T09:03:15;6.97;;;3.03;;
73454;SDS011;61690;51.824;6.306;2022-11-14T09:05:41;6.67;;;2.60;;
73454;SDS011;61690;51.824;6.306;2022-11-14T09:08:06;7.17;;;3.10;;
73454;SDS011;61690;51.824;6.306;2022-11-14T09:10:32;7.00;;;3.30;;
73454;SDS011;61690;51.824;6.306;2022-11-14T09:12:58;7.28;;;3.20;;
73454;SDS011;61690;51.824;6.306;2022-11-14T09:15:28;6.72;;;3.05;;
73454;SDS011;61690;51.824;6.306;2022-11-14T09:17:54;6.60;;;3.13;;
73454;SDS011;61690;51.824;6.306;2022-11-14T09:20:20;7.93;;;3.10;;
73454;SDS011;61690;51.824;6.306;2022-11-14T09:22:46;6.35;;;3.20;;
73454;SDS011;61690;51.824;6.306;2022-11-14T09:25:11;6.53;;;3.30;;
73454;SDS011;61690;51.824;6.306;2022-11-14T09:27:37;5.97;;;3.10;;
73454;SDS011;61690;51.824;6.306;2022-11-14T09:30:03;7.68;;;3.15;;
73454;SDS011;61690;51.824;6.306;2022-11-14T09:32:28;6.00;;;2.95;;
73454;SDS011;61690;51.824;6.306;2022-11-14T09:34:54;6.00;;;3.30;;
73454;SDS011;61690;51.824;6.306;2022-11-14T09:37:19;6.80;;;3.43;;
73454;SDS011;61690;51.824;6.306;2022-11-14T09:39:44;6.00;;;3.23;;
73454;SDS011;61690;51.824;6.306;2022-11-14T09:42:27;6.57;;;3.10;;
73454;SDS011;61690;51.824;6.306;2022-11-14T09:44:54;5.60;;;2.90;;
73454;SDS011;61690;51.824;6.306;2022-11-14T09:47:23;9.68;;;3.10;;
73454;SDS011;61690;51.824;6.306;2022-11-14T09:49:54;5.97;;;2.90;;
73454;SDS011;61690;51.824;6.306;2022-11-14T09:52:29;6.40;;;2.78;;
73454;SDS011;61690;51.824;6.306;2022-11-14T09:55:02;5.72;;;3.05;;
73454;SDS011;61690;51.824;6.306;2022-11-14T09:57:34;6.53;;;3.03;;
73454;SDS011;61690;51.824;6.306;2022-11-14T10:00:00;5.33;;;2.90;;
73454;SDS011;61690;51.824;6.306;2022-11-14T10:10:37;7.50;;;3.35;;
73454;SDS011;61690;51.824;6.306;2022-11-14T10:13:26;5.45;;;3.10;;
73454;SDS011;61690;51.824;6.306;2022-11-14T10:16:17;6.03;;;3.03;;
73454;SDS011;61690;51.824;6.306;2022-11-14T10:18:57;6.00;;;3.07;;
73454;SDS011;61690;51.824;6.306;2022-11-14T10:27:30;6.35;;;3.45;;
73454;SDS011;61690;51.824;6.306;2022-11-14T10:30:06;5.90;;;3.10;;
73454;SDS011;61690;51.824;6.306;2022-11-14T10:32:40;6.10;;;3.10;;
73454;SDS011;61690;51.824;6.306;2022-11-14T10:35:28;5.97;;;3.00;;
73454;SDS011;61690;51.824;6.306;2022-11-14T10:38:10;5.78;;;2.80;;
73454;SDS011;61690;51.824;6.306;2022-11-14T10:40:41;7.88;;;2.80;;
73454;SDS011;61690;51.824;6.306;2022-11-14T10:43:15;9.52;;;3.15;;
73454;SDS011;61690;51.824;6.306;2022-11-14T10:45:49;6.63;;;3.20;;
73454;SDS011;61690;51.824;6.306;2022-11-14T10:50:59;6.50;;;3.33;;
73454;SDS011;61690;51.824;6.306;2022-11-14T10:56:09;6.72;;;2.55;;
73454;SDS011;61690;51.824;6.306;2022-11-14T10:58:36;6.40;;;3.08;;
73454;SDS011;61690;51.824;6.306;2022-11-14T11:06:47;6.30;;;2.63;;
73454;SDS011;61690;51.824;6.306;2022-11-14T11:09:18;6.35;;;3.10;;
73454;SDS011;61690;51.824;6.306;2022-11-14T11:12:04;5.65;;;2.75;;
73454;SDS011;61690;51.824;6.306;2022-11-14T11:14:30;6.53;;;3.05;;
73454;SDS011;61690;51.824;6.306;2022-11-14T11:19:51;6.23;;;2.80;;
73454;SDS011;61690;51.824;6.306;2022-11-14T11:24:53;5.60;;;2.70;;
73454;SDS011;61690;51.824;6.306;2022-11-14T11:27:20;6.80;;;3.20;;
73454;SDS011;61690;51.824;6.306;2022-11-14T11:30:01;6.35;;;3.30;;
73454;SDS011;61690;51.824;6.306;2022-11-14T11:32:27;6.00;;;2.90;;
73454;SDS011;61690;51.824;6.306;2022-11-14T11:34:53;6.45;;;3.30;;
73454;SDS011;61690;51.824;6.306;2022-11-14T11:37:21;6.28;;;2.97;;
73454;SDS011;61690;51.824;6.306;2022-11-14T11:39:55;7.63;;;2.75;;
73454;SDS011;61690;51.824;6.306;2022-11-14T11:42:24;5.50;;;2.80;;
73454;SDS011;61690;51.824;6.306;2022-11-14T11:44:58;6.25;;;2.90;;
73454;SDS011;61690;51.824;6.306;2022-11-14T11:47:26;6.75;;;3.00;;
73454;SDS011;61690;51.824;6.306;2022-11-14T11:49:54;6.68;;;3.10;;
73454;SDS011;61690;51.824;6.306;2022-11-14T11:52:29;6.73;;;2.90;;
73454;SDS011;61690;51.824;6.306;2022-11-14T11:55:23;6.20;;;3.00;;
73454;SDS011;61690;51.824;6.306;2022-11-14T12:00:40;6.32;;;2.90;;
73454;SDS011;61690;51.824;6.306;2022-11-14T12:03:10;5.60;;;3.03;;
73454;SDS011;61690;51.824;6.306;2022-11-14T12:11:11;6.95;;;3.42;;
73454;SDS011;61690;51.824;6.306;2022-11-14T12:14:25;5.97;;;2.63;;
73454;SDS011;61690;51.824;6.306;2022-11-14T12:23:10;6.05;;;3.20;;
73454;SDS011;61690;51.824;6.306;2022-11-14T12:28:55;6.73;;;3.00;;
73454;SDS011;61690;51.824;6.306;2022-11-14T12:31:42;6.60;;;3.35;;
73454;SDS011;61690;51.824;6.306;2022-11-14T12:36:49;5.85;;;3.50;;
73454;SDS011;61690;51.824;6.306;2022-11-14T12:39:20;6.03;;;2.90;;
73454;SDS011;61690;51.824;6.306;2022-11-14T12:41:48;6.70;;;3.35;;
73454;SDS011;61690;51.824;6.306;2022-11-14T12:50:01;7.78;;;3.17;;
73454;SDS011;61690;51.824;6.306;2022-11-14T12:58:00;7.17;;;3.67;;
73454;SDS011;61690;51.824;6.306;2022-11-14T13:00:40;7.07;;;3.58;;
73454;SDS011;61690;51.824;6.306;2022-11-14T13:03:36;6.13;;;3.00;;
73454;SDS011;61690;51.824;6.306;2022-11-14T13:09:05;5.68;;;3.20;;
73454;SDS011;61690;51.824;6.306;2022-11-14T13:11:47;6.00;;;3.43;;
73454;SDS011;61690;51.824;6.306;2022-11-14T13:14:46;7.07;;;3.70;;
73454;SDS011;61690;51.824;6.306;2022-11-14T13:17:32;6.85;;;3.63;;
73454;SDS011;61690;51.824;6.306;2022-11-14T13:20:28;6.07;;;3.53;;
73454;SDS011;61690;51.824;6.306;2022-11-14T13:33:43;9.18;;;3.50;;
73454;SDS011;61690;51.824;6.306;2022-11-14T13:41:38;8.43;;;3.80;;
73454;SDS011;61690;51.824;6.306;2022-11-14T13:47:25;8.93;;;3.30;;
73454;SDS011;61690;51.824;6.306;2022-11-14T13:50:07;6.60;;;3.17;;
73454;SDS011;61690;51.824;6.306;2022-11-14T13:52:40;6.80;;;3.50;;
73454;SDS011;61690;51.824;6.306;2022-11-14T13:55:15;8.17;;;3.60;;
73454;SDS011;61690;51.824;6.306;2022-11-14T13:57:56;8.18;;;3.33;;
73454;SDS011;61690;51.824;6.306;2022-11-14T14:00:56;7.80;;;3.65;;
73454;SDS011;61690;51.824;6.306;2022-11-14T14:03:40;6.45;;;3.22;;
73454;SDS011;61690;51.824;6.306;2022-11-14T14:06:18;9.10;;;3.80;;
73454;SDS011;61690;51.824;6.306;2022-11-14T14:11:52;7.50;;;3.00;;
73454;SDS011;61690;51.824;6.306;2022-11-14T14:14:26;7.18;;;3.75;;
73454;SDS011;61690;51.824;6.306;2022-11-14T14:18:07;7.18;;;3.40;;
73454;SDS011;61690;51.824;6.306;2022-11-14T14:20:16;7.10;;;3.58;;
73454;SDS011;61690;51.824;6.306;2022-11-14T14:22:55;6.70;;;3.90;;
73454;SDS011;61690;51.824;6.306;2022-11-14T14:28:28;8.75;;;3.80;;
73454;SDS011;61690;51.824;6.306;2022-11-14T14:31:12;7.22;;;3.75;;
73454;SDS011;61690;51.824;6.306;2022-11-14T14:33:46;7.80;;;3.58;;
73454;SDS011;61690;51.824;6.306;2022-11-14T14:36:35;6.53;;;3.90;;
73454;SDS011;61690;51.824;6.306;2022-11-14T14:39:16;7.00;;;3.78;;
73454;SDS011;61690;51.824;6.306;2022-11-14T14:41:43;7.18;;;3.80;;
73454;SDS011;61690;51.824;6.306;2022-11-14T14:44:19;8.27;;;3.70;;
73454;SDS011;61690;51.824;6.306;2022-11-14T14:46:48;6.07;;;3.38;;
73454;SDS011;61690;51.824;6.306;2022-11-14T14:49:17;8.63;;;3.47;;
73454;SDS011;61690;51.824;6.306;2022-11-14T14:51:46;7.40;;;3.30;;
73454;SDS011;61690;51.824;6.306;2022-11-14T14:54:21;7.78;;;3.28;;
73454;SDS011;61690;51.824;6.306;2022-11-14T14:56:52;8.93;;;3.57;;
73454;SDS011;61690;51.824;6.306;2022-11-14T14:59:28;6.85;;;3.45;;
73454;SDS011;61690;51.824;6.306;2022-11-14T15:01:54;6.50;;;3.05;;
73454;SDS011;61690;51.824;6.306;2022-11-14T15:04:22;7.55;;;3.65;;
73454;SDS011;61690;51.824;6.306;2022-11-14T15:06:49;6.63;;;3.70;;
73454;SDS011;61690;51.824;6.306;2022-11-14T15:09:20;6.57;;;3.63;;
73454;SDS011;61690;51.824;6.306;2022-11-14T15:11:51;8.18;;;3.35;;
73454;SDS011;61690;51.824;6.306;2022-11-14T15:14:21;6.68;;;3.65;;
73454;SDS011;61690;51.824;6.306;2022-11-14T15:16:48;7.22;;;3.17;;
73454;SDS011;61690;51.824;6.306;2022-11-14T15:19:15;7.10;;;3.53;;
73454;SDS011;61690;51.824;6.306;2022-11-14T15:21:44;7.00;;;3.50;;
73454;SDS011;61690;51.824;6.306;2022-11-14T15:26:39;8.10;;;3.40;;
73454;SDS011;61690;51.824;6.306;2022-11-14T15:31:46;7.15;;;3.15;;
73454;SDS011;61690;51.824;6.306;2022-11-14T15:39:43;6.87;;;3.07;;
73454;SDS011;61690;51.824;6.306;2022-11-14T15:42:14;6.28;;;3.42;;
73454;SDS011;61690;51.824;6.306;2022-11-14T15:44:44;8.10;;;3.38;;
73454;SDS011;61690;51.824;6.306;2022-11-14T15:47:33;6.97;;;3.40;;
73454;SDS011;61690;51.824;6.306;2022-11-14T15:50:05;7.03;;;3.20;;
73454;SDS011;61690;51.824;6.306;2022-11-14T15:52:53;6.60;;;3.70;;
73454;SDS011;61690;51.824;6.306;2022-11-14T15:55:22;8.38;;;3.50;;
73454;SDS011;61690;51.824;6.306;2022-11-14T15:57:48;6.43;;;3.38;;
73454;SDS011;61690;51.824;6.306;2022-11-14T16:00:14;6.82;;;3.20;;
73454;SDS011;61690;51.824;6.306;2022-11-14T16:02:42;7.30;;;3.63;;
73454;SDS011;61690;51.824;6.306;2022-11-14T16:05:11;7.97;;;3.90;;
73454;SDS011;61690;51.824;6.306;2022-11-14T16:07:38;6.50;;;3.58;;
73454;SDS011;61690;51.824;6.306;2022-11-14T16:10:26;8.33;;;3.40;;
73454;SDS011;61690;51.824;6.306;2022-11-14T16:12:51;6.32;;;3.53;;
73454;SDS011;61690;51.824;6.306;2022-11-14T16:15:16;7.23;;;3.93;;
73454;SDS011;61690;51.824;6.306;2022-11-14T16:17:43;6.78;;;3.50;;
73454;SDS011;61690;51.824;6.306;2022-11-14T16:20:14;6.57;;;3.60;;
73454;SDS011;61690;51.824;6.306;2022-11-14T16:23:03;6.68;;;3.70;;
73454;SDS011;61690;51.824;6.306;2022-11-14T16:25:29;7.13;;;3.72;;
73454;SDS011;61690;51.824;6.306;2022-11-14T16:27:55;6.53;;;3.53;;
73454;SDS011;61690;51.824;6.306;2022-11-14T16:30:21;6.30;;;3.50;;
73454;SDS011;61690;51.824;6.306;2022-11-14T16:32:48;7.53;;;3.58;;
73454;SDS011;61690;51.824;6.306;2022-11-14T16:35:19;7.57;;;3.60;;
73454;SDS011;61690;51.824;6.306;2022-11-14T16:37:49;7.28;;;3.30;;
73454;SDS011;61690;51.824;6.306;2022-11-14T16:42:40;8.63;;;3.30;;
73454;SDS011;61690;51.824;6.306;2022-11-14T16:45:05;6.17;;;3.70;;
73454;SDS011;61690;51.824;6.306;2022-11-14T16:47:31;7.20;;;3.25;;
73454;SDS011;61690;51.824;6.306;2022-11-14T16:49:57;6.77;;;3.40;;
73454;SDS011;61690;51.824;6.306;2022-11-14T16:52:22;10.50;;;3.70;;
73454;SDS011;61690;51.824;6.306;2022-11-14T16:54:48;6.83;;;3.73;;
73454;SDS011;61690;51.824;6.306;2022-11-14T16:57:13;6.20;;;3.60;;
73454;SDS011;61690;51.824;6.306;2022-11-14T16:59:38;7.10;;;3.60;;
73454;SDS011;61690;51.824;6.306;2022-11-14T17:02:04;7.38;;;3.70;;
73454;SDS011;61690;51.824;6.306;2022-11-14T17:04:29;6.63;;;3.53;;
73454;SDS011;61690;51.824;6.306;2022-11-14T17:06:55;7.03;;;3.33;;
73454;SDS011;61690;51.824;6.306;2022-11-14T17:09:20;7.83;;;3.23;;
73454;SDS011;61690;51.824;6.306;2022-11-14T17:11:45;8.10;;;3.57;;
73454;SDS011;61690;51.824;6.306;2022-11-14T17:14:11;7.82;;;3.72;;
73454;SDS011;61690;51.824;6.306;2022-11-14T17:16:37;7.60;;;3.90;;
73454;SDS011;61690;51.824;6.306;2022-11-14T17:19:02;7.70;;;3.53;;
73454;SDS011;61690;51.824;6.306;2022-11-14T17:21:28;8.93;;;3.30;;
73454;SDS011;61690;51.824;6.306;2022-11-14T17:23:56;9.67;;;3.97;;
73454;SDS011;61690;51.824;6.306;2022-11-14T17:26:25;8.65;;;3.97;;
73454;SDS011;61690;51.824;6.306;2022-11-14T17:28:51;6.78;;;3.60;;
73454;SDS011;61690;51.824;6.306;2022-11-14T17:31:16;6.67;;;3.63;;
73454;SDS011;61690;51.824;6.306;2022-11-14T17:33:42;7.53;;;3.57;;
73454;SDS011;61690;51.824;6.306;2022-11-14T17:36:08;6.75;;;3.60;;
73454;SDS011;61690;51.824;6.306;2022-11-14T17:38:35;6.68;;;3.70;;
73454;SDS011;61690;51.824;6.306;2022-11-14T17:41:02;6.65;;;3.42;;
73454;SDS011;61690;51.824;6.306;2022-11-14T17:43:34;7.68;;;3.78;;
73454;SDS011;61690;51.824;6.306;2022-11-14T17:46:00;8.00;;;3.70;;
73454;SDS011;61690;51.824;6.306;2022-11-14T17:48:27;7.15;;;3.70;;
73454;SDS011;61690;51.824;6.306;2022-11-14T17:50:52;6.68;;;3.40;;
73454;SDS011;61690;51.824;6.306;2022-11-14T17:53:18;7.07;;;3.80;;
73454;SDS011;61690;51.824;6.306;2022-11-14T17:55:43;6.20;;;3.40;;
73454;SDS011;61690;51.824;6.306;2022-11-14T17:58:09;8.73;;;3.90;;
73454;SDS011;61690;51.824;6.306;2022-11-14T18:00:35;8.70;;;3.53;;
73454;SDS011;61690;51.824;6.306;2022-11-14T18:03:00;6.57;;;3.60;;
73454;SDS011;61690;51.824;6.306;2022-11-14T18:05:26;8.10;;;4.17;;
73454;SDS011;61690;51.824;6.306;2022-11-14T18:07:51;6.60;;;3.80;;
73454;SDS011;61690;51.824;6.306;2022-11-14T18:10:16;7.72;;;3.47;;
73454;SDS011;61690;51.824;6.306;2022-11-14T18:12:42;6.87;;;3.80;;
73454;SDS011;61690;51.824;6.306;2022-11-14T18:15:07;7.93;;;4.03;;
73454;SDS011;61690;51.824;6.306;2022-11-14T18:17:33;6.80;;;3.53;;
73454;SDS011;61690;51.824;6.306;2022-11-14T18:19:58;6.60;;;3.60;;
73454;SDS011;61690;51.824;6.306;2022-11-14T18:22:26;8.15;;;3.63;;
73454;SDS011;61690;51.824;6.306;2022-11-14T18:24:52;8.17;;;3.67;;
73454;SDS011;61690;51.824;6.306;2022-11-14T18:27:18;6.43;;;3.75;;
73454;SDS011;61690;51.824;6.306;2022-11-14T18:29:44;7.40;;;3.80;;
73454;SDS011;61690;51.824;6.306;2022-11-14T18:32:09;6.33;;;3.43;;
73454;SDS011;61690;51.824;6.306;2022-11-14T18:34:34;7.83;;;3.60;;
73454;SDS011;61690;51.824;6.306;2022-11-14T18:37:04;7.40;;;3.40;;
73454;SDS011;61690;51.824;6.306;2022-11-14T18:39:30;7.18;;;3.40;;
73454;SDS011;61690;51.824;6.306;2022-11-14T18:41:56;6.93;;;3.70;;
73454;SDS011;61690;51.824;6.306;2022-11-14T18:44:23;7.70;;;3.30;;
73454;SDS011;61690;51.824;6.306;2022-11-14T18:46:49;7.03;;;3.60;;
73454;SDS011;61690;51.824;6.306;2022-11-14T18:49:14;7.05;;;3.70;;
73454;SDS011;61690;51.824;6.306;2022-11-14T18:51:40;6.00;;;3.63;;
73454;SDS011;61690;51.824;6.306;2022-11-14T18:54:15;7.18;;;3.90;;
73454;SDS011;61690;51.824;6.306;2022-11-14T18:56:41;6.60;;;3.50;;
73454;SDS011;61690;51.824;6.306;2022-11-14T18:59:06;6.00;;;3.20;;
73454;SDS011;61690;51.824;6.306;2022-11-14T19:01:32;7.73;;;3.73;;
73454;SDS011;61690;51.824;6.306;2022-11-14T19:04:00;6.45;;;3.53;;
73454;SDS011;61690;51.824;6.306;2022-11-14T19:06:31;6.40;;;3.67;;
73454;SDS011;61690;51.824;6.306;2022-11-14T19:08:58;8.23;;;3.58;;
73454;SDS011;61690;51.824;6.306;2022-11-14T19:11:25;6.88;;;3.20;;
73454;SDS011;61690;51.824;6.306;2022-11-14T19:14:09;6.63;;;3.77;;
73454;SDS011;61690;51.824;6.306;2022-11-14T19:16:34;6.80;;;3.63;;
73454;SDS011;61690;51.824;6.306;2022-11-14T19:19:00;8.05;;;3.90;;
73454;SDS011;61690;51.824;6.306;2022-11-14T19:21:26;7.43;;;3.83;;
73454;SDS011;61690;51.824;6.306;2022-11-14T19:23:52;8.15;;;3.97;;
73454;SDS011;61690;51.824;6.306;2022-11-14T19:26:18;7.97;;;3.90;;
73454;SDS011;61690;51.824;6.306;2022-11-14T19:28:44;7.63;;;4.30;;
73454;SDS011;61690;51.824;6.306;2022-11-14T19:31:10;8.07;;;4.40;;
73454;SDS011;61690;51.824;6.306;2022-11-14T19:33:38;7.07;;;3.90;;
73454;SDS011;61690;51.824;6.306;2022-11-14T19:36:05;6.63;;;3.67;;
73454;SDS011;61690;51.824;6.306;2022-11-14T19:38:32;7.87;;;4.53;;
73454;SDS011;61690;51.824;6.306;2022-11-14T19:40:57;6.53;;;3.72;;
73454;SDS011;61690;51.824;6.306;2022-11-14T19:43:22;8.23;;;4.80;;
73454;SDS011;61690;51.824;6.306;2022-11-14T19:45:49;7.57;;;4.50;;
73454;SDS011;61690;51.824;6.306;2022-11-14T19:48:15;7.20;;;3.97;;
73454;SDS011;61690;51.824;6.306;2022-11-14T19:50:40;7.68;;;4.55;;
73454;SDS011;61690;51.824;6.306;2022-11-14T19:53:06;7.73;;;4.30;;
73454;SDS011;61690;51.824;6.306;2022-11-14T19:55:31;7.37;;;4.33;;
73454;SDS011;61690;51.824;6.306;2022-11-14T19:58:00;7.60;;;4.30;;
73454;SDS011;61690;51.824;6.306;2022-11-14T20:00:25;8.52;;;4.28;;
73454;SDS011;61690;51.824;6.306;2022-11-14T20:02:53;7.55;;;4.38;;
73454;SDS011;61690;51.824;6.306;2022-11-14T20:05:18;8.07;;;4.57;;
73454;SDS011;61690;51.824;6.306;2022-11-14T20:07:43;7.83;;;4.40;;
73454;SDS011;61690;51.824;6.306;2022-11-14T20:10:09;8.37;;;4.30;;
73454;SDS011;61690;51.824;6.306;2022-11-14T20:12:34;7.88;;;4.47;;
73454;SDS011;61690;51.824;6.306;2022-11-14T20:14:59;7.90;;;4.70;;
73454;SDS011;61690;51.824;6.306;2022-11-14T20:17:25;7.50;;;4.00;;
73454;SDS011;61690;51.824;6.306;2022-11-14T20:19:50;8.07;;;5.10;;
73454;SDS011;61690;51.824;6.306;2022-11-14T20:22:16;7.30;;;4.60;;
73454;SDS011;61690;51.824;6.306;2022-11-14T20:24:42;7.45;;;4.50;;
73454;SDS011;61690;51.824;6.306;2022-11-14T20:27:07;7.97;;;4.53;;
73454;SDS011;61690;51.824;6.306;2022-11-14T20:29:33;7.10;;;4.13;;
73454;SDS011;61690;51.824;6.306;2022-11-14T20:31:58;8.17;;;4.37;;
73454;SDS011;61690;51.824;6.306;2022-11-14T20:34:23;9.13;;;4.33;;
73454;SDS011;61690;51.824;6.306;2022-11-14T20:36:49;7.70;;;4.10;;
73454;SDS011;61690;51.824;6.306;2022-11-14T20:39:15;8.07;;;4.72;;
73454;SDS011;61690;51.824;6.306;2022-11-14T20:41:40;7.80;;;4.10;;
73454;SDS011;61690;51.824;6.306;2022-11-14T20:44:06;8.57;;;4.55;;
73454;SDS011;61690;51.824;6.306;2022-11-14T20:46:31;7.47;;;4.30;;
73454;SDS011;61690;51.824;6.306;2022-11-14T20:48:57;7.60;;;4.47;;
73454;SDS011;61690;51.824;6.306;2022-11-14T20:51:22;7.63;;;4.20;;
73454;SDS011;61690;51.824;6.306;2022-11-14T20:53:50;8.35;;;4.28;;
73454;SDS011;61690;51.824;6.306;2022-11-14T20:56:17;7.38;;;4.50;;
73454;SDS011;61690;51.824;6.306;2022-11-14T20:58:44;7.40;;;4.47;;
73454;SDS011;61690;51.824;6.306;2022-11-14T21:01:11;7.60;;;4.60;;
73454;SDS011;61690;51.824;6.306;2022-11-14T21:03:37;7.82;;;5.00;;
73454;SDS011;61690;51.824;6.306;2022-11-14T21:06:03;8.55;;;5.35;;
73454;SDS011;61690;51.824;6.306;2022-11-14T21:08:31;8.35;;;4.70;;
73454;SDS011;61690;51.824;6.306;2022-11-14T21:11:02;8.13;;;4.43;;
73454;SDS011;61690;51.824;6.306;2022-11-14T21:13:32;8.43;;;5.07;;
73454;SDS011;61690;51.824;6.306;2022-11-14T21:16:18;8.75;;;4.80;;
73454;SDS011;61690;51.824;6.306;2022-11-14T21:18:44;8.93;;;4.90;;
73454;SDS011;61690;51.824;6.306;2022-11-14T21:21:11;8.43;;;4.55;;
73454;SDS011;61690;51.824;6.306;2022-11-14T21:23:42;8.50;;;4.50;;
73454;SDS011;61690;51.824;6.306;2022-11-14T21:26:12;8.85;;;4.55;;
73454;SDS011;61690;51.824;6.306;2022-11-14T21:28:40;7.97;;;4.45;;
73454;SDS011;61690;51.824;6.306;2022-11-14T21:31:12;8.25;;;4.72;;
73454;SDS011;61690;51.824;6.306;2022-11-14T21:33:38;9.60;;;4.82;;
73454;SDS011;61690;51.824;6.306;2022-11-14T21:36:09;7.80;;;4.80;;
73454;SDS011;61690;51.824;6.306;2022-11-14T21:38:36;7.93;;;4.72;;
73454;SDS011;61690;51.824;6.306;2022-11-14T21:41:02;9.00;;;4.70;;